»·PEaware :: N739HH KAWO-KOLM

N739HH :: KAWO-KOLM

FLIGHT INFORMATION

Flight Status: Arrived
Operator: Privately registered:
United States
More flights under this callsign
Pilot: Andrew J. (13363)
Aircraft: MITSUBISHI MU-2 MARQUISE
(MU2)
More flights by this aircraft type
Origin: KAWO Arlington Mun
United States
Destination: KOLM Olympia
United States
More flights between these airports :: More routes between these airports
Route: LOFAL V287 OLM
File this flight plan on PilotEdge
Remarks:
Altitude:
(Current/Filed)
8,000ft
Speed:
(Current/Filed)
260kts
Departed: 17-Dec-17 03:39 PM
Arrived: 17-Dec-17 04:27 PM
Distance/Time
Traveled:
78nm/0:48
Distance/Time
To Go:
Arrived

Flight Plot

Page will automatically refresh every two minutes.

Flight plan parsing failed; only flown route is shown


Map Options




Map Legend


Flown Route
Filed Route
Departure Airport
Arrival Airport
Navaid (VOR, NDB)
Fix

Horizontal Profiles

Position Reports

Time Latitude Longitude Heading Altitude Ground
Speed
17-Dec-17 15:44 48.170242 -122.154118 216 145ft 32kts
17-Dec-17 15:45 48.155326 -122.156698 180 206ft 152kts
17-Dec-17 15:46 48.126537 -122.197185 272 2144ft 191kts
17-Dec-17 15:47 48.154335 -122.262520 283 4243ft 191kts
17-Dec-17 15:48 48.123248 -122.314180 217 6301ft 170kts
17-Dec-17 15:49 48.086974 -122.362884 217 7975ft 196kts
17-Dec-17 15:50 48.040947 -122.424737 218 7981ft 237kts
17-Dec-17 15:51 47.990869 -122.492576 218 7971ft 243kts
17-Dec-17 15:52 47.941729 -122.558250 225 7939ft 233kts
17-Dec-17 15:53 47.894247 -122.622919 224 7947ft 234kts
17-Dec-17 15:54 47.849567 -122.693565 255 7958ft 239kts
17-Dec-17 15:55 47.821951 -122.778402 198 7951ft 254kts
17-Dec-17 15:56 47.750682 -122.793614 189 8012ft 266kts
17-Dec-17 15:57 47.680559 -122.803096 190 8001ft 259kts
17-Dec-17 15:58 47.610052 -122.813278 188 8007ft 252kts
17-Dec-17 15:59 47.541595 -122.822591 186 8004ft 242kts
17-Dec-17 16:00 47.476331 -122.831763 186 8006ft 241kts
17-Dec-17 16:01 47.410169 -122.841463 187 8005ft 240kts
17-Dec-17 16:02 47.344311 -122.849978 186 7575ft 237kts
17-Dec-17 16:03 47.286332 -122.822728 132 5907ft 246kts
17-Dec-17 16:04 47.244052 -122.746060 142 4457ft 238kts
17-Dec-17 16:05 47.192264 -122.771221 232 3163ft 224kts
17-Dec-17 16:06 47.154764 -122.823562 206 2410ft 177kts
17-Dec-17 16:07 47.116514 -122.853807 209 2408ft 141kts
17-Dec-17 16:08 47.079604 -122.872055 191 2276ft 165kts
17-Dec-17 16:09 47.030913 -122.886509 191 1333ft 160kts
17-Dec-17 16:10 46.996731 -122.896321 188 620ft 103kts
17-Dec-17 16:11 46.966888 -122.905531 189 599ft 144kts
17-Dec-17 16:12 46.929641 -122.917977 182 3304ft 149kts
17-Dec-17 16:13 46.880421 -122.936163 194 3880ft 217kts
17-Dec-17 16:14 46.823150 -122.963991 221 4615ft 235kts
17-Dec-17 16:15 46.827878 -123.059015 306 4594ft 265kts
17-Dec-17 16:16 46.894915 -123.078434 27 4555ft 262kts
17-Dec-17 16:17 46.933259 -123.000349 64 4022ft 224kts
17-Dec-17 16:18 46.965341 -122.919810 61 4024ft 234kts
17-Dec-17 16:19 47.018369 -122.878580 359 4006ft 242kts
17-Dec-17 16:20 47.084692 -122.869820 9 3377ft 241kts
17-Dec-17 16:21 47.138811 -122.854940 11 2881ft 221kts
17-Dec-17 16:22 47.200557 -122.836072 10 2888ft 232kts
17-Dec-17 16:23 47.258421 -122.870925 353 2876ft 239kts
17-Dec-17 16:24 47.276807 -122.811065 155 2879ft 192kts
17-Dec-17 16:25 47.230112 -122.825579 195 2878ft 158kts
17-Dec-17 16:26 47.189482 -122.839689 192 2397ft 155kts
17-Dec-17 16:27 47.145007 -122.852948 191 2395ft 169kts
17-Dec-17 16:28 47.098852 -122.866543 191 2388ft 164kts
17-Dec-17 16:29 47.055913 -122.879227 191 1814ft 164kts
17-Dec-17 16:30 47.019267 -122.890036 192 1078ft 112kts
17-Dec-17 16:31 46.991764 -122.898066 190 552ft 99kts
17-Dec-17 16:32 46.967140 -122.905276 190 212ft 45kts
17-Dec-17 16:33 46.963405 -122.905080 96 212ft 0kts
17-Dec-17 16:34 46.963347 -122.903791 94 212ft 17kts

Navigation Log

Ident Type
Flight plan parsing failed, navigation log unavailable